createdAt,value
2023-12-24T00:04:36.610Z,71.75
2023-12-24T00:19:38.450Z,69.56
2023-12-24T00:34:40.166Z,66.71
2023-12-24T00:49:41.869Z,62.93
2023-12-24T01:04:44.408Z,60.42
2023-12-24T01:19:46.386Z,58.87
2023-12-24T01:34:48.154Z,59.81
2023-12-24T01:49:50.796Z,59.29
2023-12-24T02:04:52.610Z,58.29
2023-12-24T02:19:54.518Z,58.30
2023-12-24T02:35:00.778Z,57.45
2023-12-24T02:50:04.483Z,57.22
2023-12-24T03:05:06.563Z,56.67
2023-12-24T03:20:09.595Z,57.01
2023-12-24T03:35:11.436Z,57.05
2023-12-24T03:50:13.273Z,57.57
2023-12-24T04:05:15.111Z,56.73
2023-12-24T04:20:16.922Z,57.84
2023-12-24T04:35:18.694Z,58.22
2023-12-24T04:50:20.460Z,58.80
2023-12-24T05:05:22.834Z,58.89
2023-12-24T05:20:24.705Z,58.24
2023-12-24T05:35:26.518Z,58.56
2023-12-24T05:50:28.555Z,58.11
2023-12-24T06:05:30.423Z,58.26
2023-12-24T06:20:33.712Z,58.07
2023-12-24T06:35:35.641Z,58.32
2023-12-24T06:50:37.440Z,57.63
2023-12-24T07:05:39.833Z,56.56
2023-12-24T07:20:41.714Z,55.92
2023-12-24T07:35:43.527Z,55.65
2023-12-24T07:50:45.371Z,54.15
2023-12-24T08:05:48.010Z,52.13
2023-12-24T08:20:49.950Z,51.58
2023-12-24T08:35:51.746Z,50.00
2023-12-24T08:50:53.759Z,46.90
2023-12-24T09:05:55.594Z,45.90
2023-12-24T09:20:57.428Z,41.91
2023-12-24T09:35:59.374Z,41.24
2023-12-24T09:51:01.478Z,40.08
2023-12-24T10:06:10.652Z,39.84
2023-12-24T10:21:12.602Z,38.46
2023-12-24T10:36:14.260Z,38.62
2023-12-24T10:51:15.940Z,39.19
2023-12-24T11:06:41.749Z,41.00
2023-12-24T11:22:11.967Z,42.92
2023-12-24T11:37:29.537Z,43.07
2023-12-24T11:52:31.446Z,44.66
2023-12-24T12:07:34.003Z,44.81
2023-12-24T12:22:35.745Z,45.44
2023-12-24T12:37:37.557Z,44.82
2023-12-24T12:52:39.466Z,44.23
2023-12-24T13:07:41.171Z,44.00
2023-12-24T13:22:44.037Z,43.39
2023-12-24T13:37:45.969Z,43.51
2023-12-24T13:52:47.816Z,43.70
2023-12-24T14:07:49.735Z,43.80
2023-12-24T14:22:52.060Z,44.46
2023-12-24T14:37:54.149Z,45.08
2023-12-24T14:52:56.279Z,45.31
2023-12-24T15:07:58.315Z,47.83
2023-12-24T15:23:00.326Z,45.95
2023-12-24T15:38:02.342Z,46.27
2023-12-24T15:53:04.464Z,47.05
2023-12-24T16:08:06.979Z,47.76
2023-12-24T16:23:10.429Z,48.32
2023-12-24T16:38:12.441Z,48.41
2023-12-24T16:53:17.130Z,48.69
2023-12-24T17:08:19.324Z,49.05
2023-12-24T17:23:21.341Z,49.80
2023-12-24T17:38:23.255Z,50.01
2023-12-24T17:53:25.282Z,50.39
2023-12-24T18:08:27.198Z,51.05
2023-12-24T18:23:29.113Z,51.50
2023-12-24T18:38:32.450Z,51.63
2023-12-24T18:53:35.032Z,51.75
2023-12-24T19:08:37.073Z,52.11
2023-12-24T19:23:39.788Z,52.35
2023-12-24T19:38:41.786Z,52.13
2023-12-24T19:53:43.939Z,52.27
2023-12-24T20:08:46.003Z,51.89
2023-12-24T20:23:50.204Z,54.37
2023-12-24T20:38:52.607Z,58.39
2023-12-24T20:53:54.609Z,63.87
2023-12-24T21:08:58.368Z,66.67
2023-12-24T21:24:00.382Z,66.31
2023-12-24T21:39:02.355Z,66.08
2023-12-24T21:54:04.251Z,65.55
2023-12-24T22:09:06.165Z,66.21
2023-12-24T22:24:08.554Z,66.34
2023-12-24T22:39:10.504Z,64.52
2023-12-24T22:54:12.499Z,65.46
2023-12-24T23:09:14.493Z,65.04
2023-12-24T23:24:16.755Z,65.61
2023-12-24T23:39:18.780Z,64.99
2023-12-24T23:54:20.688Z,65.34
